createdAt,value
2023-05-10T00:01:11.464Z,100526.88
2023-05-10T00:03:38.802Z,100525.13
2023-05-10T00:06:06.153Z,100523.44
2023-05-10T00:08:33.300Z,100521.66
2023-05-10T00:11:00.448Z,100523.38
2023-05-10T00:13:27.563Z,100524.19
2023-05-10T00:15:54.723Z,100524.13
2023-05-10T00:18:22.004Z,100526.69
2023-05-10T00:20:50.007Z,100523.16
2023-05-10T00:23:17.242Z,100526.56
2023-05-10T00:25:44.358Z,100521.31
2023-05-10T00:28:11.475Z,100521.31
2023-05-10T00:30:38.766Z,100525.50
2023-05-10T00:33:05.895Z,100534.09
2023-05-10T00:35:33.434Z,100524.50
2023-05-10T00:38:00.582Z,100527.03
2023-05-10T00:40:27.891Z,100521.78
2023-05-10T00:43:00.592Z,100519.13
2023-05-10T00:45:28.353Z,100528.56
2023-05-10T00:47:57.195Z,100521.59
2023-05-10T00:50:24.793Z,100523.31
2023-05-10T00:52:52.253Z,100524.16
2023-05-10T00:55:19.584Z,100522.50
2023-05-10T00:57:46.992Z,100515.56
2023-05-10T01:00:19.146Z,100512.09
2023-05-10T01:02:47.591Z,100511.16
2023-05-10T01:05:15.191Z,100503.38
2023-05-10T01:07:42.429Z,100510.22
2023-05-10T01:10:11.757Z,100509.31
2023-05-10T01:12:42.053Z,100505.06
2023-05-10T01:15:10.474Z,100497.28
2023-05-10T01:17:39.801Z,100504.19
2023-05-10T01:20:12.189Z,100508.50
2023-05-10T01:23:01.901Z,100503.25
2023-05-10T01:25:37.878Z,100501.53
2023-05-10T01:28:24.765Z,100503.19
2023-05-10T01:31:06.246Z,100507.56
2023-05-10T01:33:44.858Z,100501.50
2023-05-10T01:36:41.456Z,100497.19
2023-05-10T01:39:22.238Z,100496.34
2023-05-10T01:41:56.206Z,100485.13
2023-05-10T01:44:51.145Z,100501.50
2023-05-10T01:47:46.106Z,100498.78
2023-05-10T01:50:28.428Z,100495.31
2023-05-10T01:52:58.093Z,100496.22
2023-05-10T01:55:27.835Z,100493.63
2023-05-10T01:58:21.700Z,100498.78
2023-05-10T02:00:51.295Z,100492.75
2023-05-10T02:03:22.363Z,100495.34
2023-05-10T02:05:50.334Z,100495.34
2023-05-10T02:08:18.989Z,100494.47
2023-05-10T02:10:47.053Z,100484.06
2023-05-10T02:13:15.626Z,100487.44
2023-05-10T02:15:43.002Z,100487.47
2023-05-10T02:18:12.324Z,100484.84
2023-05-10T02:20:40.014Z,100483.97
2023-05-10T02:23:08.364Z,100486.47
2023-05-10T02:25:37.546Z,100477.72
2023-05-10T02:28:06.489Z,100477.59
2023-05-10T02:30:35.426Z,100478.34
2023-05-10T02:33:04.261Z,100484.34
2023-05-10T02:35:33.713Z,100478.28
2023-05-10T02:38:01.621Z,100481.66
2023-05-10T02:40:31.228Z,100477.41
2023-05-10T02:42:59.977Z,100480.94
2023-05-10T02:45:30.707Z,100481.84
2023-05-10T02:47:58.899Z,100479.41
2023-05-10T02:50:29.050Z,100478.53
2023-05-10T02:53:01.954Z,100472.53
2023-05-10T02:55:34.349Z,100471.69
2023-05-10T02:58:02.811Z,100482.03
2023-05-10T03:00:30.248Z,100479.44
2023-05-10T03:02:57.461Z,100479.44
2023-05-10T03:05:25.800Z,100484.66
2023-05-10T03:07:54.010Z,100478.59
2023-05-10T03:10:24.207Z,100488.13
2023-05-10T03:12:59.845Z,100485.53
2023-05-10T03:15:43.847Z,100480.38
2023-05-10T03:18:17.171Z,100489.44
2023-05-10T03:20:49.656Z,100484.94
2023-05-10T03:23:19.698Z,100483.78
2023-05-10T03:25:48.589Z,100484.19
2023-05-10T03:28:17.148Z,100484.47
2023-05-10T03:30:45.003Z,100485.53
2023-05-10T03:33:14.436Z,100484.69
2023-05-10T03:35:47.000Z,100482.97
2023-05-10T03:38:15.237Z,100481.16
2023-05-10T03:40:42.688Z,100476.66
2023-05-10T03:43:09.992Z,100478.16
2023-05-10T03:45:37.463Z,100468.34
2023-05-10T03:48:05.273Z,100474.13
2023-05-10T03:50:32.473Z,100477.25
2023-05-10T03:52:59.619Z,100474.25
2023-05-10T03:55:29.371Z,100478.34
2023-05-10T03:57:57.208Z,100478.91
2023-05-10T04:00:24.714Z,100475.03
2023-05-10T04:02:54.943Z,100478.00
2023-05-10T04:05:22.155Z,100480.22
2023-05-10T04:07:50.550Z,100476.47
2023-05-10T04:10:18.161Z,100484.72
2023-05-10T04:12:45.539Z,100478.88
2023-05-10T04:15:12.816Z,100477.75
2023-05-10T04:17:39.991Z,100481.16
2023-05-10T04:20:07.875Z,100475.03
2023-05-10T04:22:35.039Z,100472.19
2023-05-10T04:25:02.144Z,100468.66
2023-05-10T04:27:29.385Z,100463.06
2023-05-10T04:29:56.567Z,100468.19
2023-05-10T04:32:23.725Z,100463.53
2023-05-10T04:34:52.689Z,100463.44
2023-05-10T04:37:19.888Z,100465.25
2023-05-10T04:39:47.551Z,100465.31
2023-05-10T04:42:16.178Z,100460.81
2023-05-10T04:44:43.820Z,100461.53
2023-05-10T04:47:12.691Z,100458.78
2023-05-10T04:49:40.051Z,100455.53
2023-05-10T04:52:07.530Z,100465.53
2023-05-10T04:54:34.574Z,100459.22
2023-05-10T04:57:01.717Z,100464.63
2023-05-10T04:59:28.915Z,100469.09
2023-05-10T05:01:56.472Z,100476.94
2023-05-10T05:04:24.732Z,100465.63
2023-05-10T05:06:53.784Z,100470.00
2023-05-10T05:09:21.234Z,100469.06
2023-05-10T05:11:48.325Z,100469.78
2023-05-10T05:14:15.474Z,100465.41
2023-05-10T05:16:42.754Z,100466.97
2023-05-10T05:19:09.943Z,100469.50
2023-05-10T05:21:37.185Z,100460.81
2023-05-10T05:24:04.668Z,100461.75
2023-05-10T05:26:31.748Z,100451.38
2023-05-10T05:28:58.779Z,100461.81
2023-05-10T05:31:25.902Z,100452.97
2023-05-10T05:33:53.048Z,100463.31
2023-05-10T05:36:20.150Z,100462.50
2023-05-10T05:38:47.334Z,100456.41
2023-05-10T05:41:14.443Z,100462.50
2023-05-10T05:43:41.586Z,100459.69
2023-05-10T05:46:09.926Z,100461.50
2023-05-10T05:48:37.074Z,100457.16
2023-05-10T05:51:06.536Z,100453.44
2023-05-10T05:53:34.752Z,100455.22
2023-05-10T05:56:01.904Z,100454.19
2023-05-10T05:58:29.218Z,100454.88
2023-05-10T06:00:56.349Z,100447.97
2023-05-10T06:03:23.429Z,100448.19
2023-05-10T06:05:50.671Z,100452.44
2023-05-10T06:08:17.941Z,100446.06
2023-05-10T06:10:45.660Z,100454.53
2023-05-10T06:13:12.859Z,100453.38
2023-05-10T06:15:40.088Z,100457.47
2023-05-10T06:18:07.388Z,100458.31
2023-05-10T06:20:34.550Z,100458.28
2023-05-10T06:23:01.641Z,100451.91
2023-05-10T06:25:28.723Z,100457.94
2023-05-10T06:27:58.612Z,100448.97
2023-05-10T06:30:29.866Z,100443.59
2023-05-10T06:32:57.950Z,100449.53
2023-05-10T06:35:25.402Z,100455.44
2023-05-10T06:37:52.733Z,100452.66
2023-05-10T06:40:20.482Z,100450.84
2023-05-10T06:42:48.516Z,100447.00
2023-05-10T06:45:16.602Z,100445.19
2023-05-10T06:47:44.521Z,100443.63
2023-05-10T06:50:15.040Z,100435.72
2023-05-10T06:52:42.339Z,100443.22
2023-05-10T06:55:10.008Z,100439.53
2023-05-10T06:57:37.295Z,100442.88
2023-05-10T07:00:07.463Z,100440.97
2023-05-10T07:02:34.759Z,100444.06
2023-05-10T07:05:03.388Z,100446.56
2023-05-10T07:07:31.063Z,100443.63
2023-05-10T07:09:58.855Z,100442.63
2023-05-10T07:12:26.450Z,100446.63
2023-05-10T07:14:53.849Z,100442.84
2023-05-10T07:17:21.174Z,100439.78
2023-05-10T07:19:48.341Z,100435.44
2023-05-10T07:22:16.606Z,100440.34
2023-05-10T07:24:44.137Z,100437.38
2023-05-10T07:27:11.241Z,100437.25
2023-05-10T07:29:38.751Z,100443.28
2023-05-10T07:32:07.014Z,100437.34
2023-05-10T07:34:34.235Z,100435.53
2023-05-10T07:37:02.253Z,100433.06
2023-05-10T07:39:29.322Z,100439.56
2023-05-10T07:41:57.010Z,100432.28
2023-05-10T07:44:24.320Z,100433.91
2023-05-10T07:46:51.774Z,100414.50
2023-05-10T07:49:18.933Z,100426.44
2023-05-10T07:51:46.041Z,100419.81
2023-05-10T07:54:13.831Z,100436.13
2023-05-10T07:56:43.121Z,100423.91
2023-05-10T07:59:12.025Z,100429.03
2023-05-10T08:01:39.813Z,100427.38
2023-05-10T08:04:07.083Z,100430.84
2023-05-10T08:06:34.297Z,100433.50
2023-05-10T08:09:01.541Z,100431.75
2023-05-10T08:13:58.546Z,100427.44
2023-05-10T08:16:25.712Z,100415.88
2023-05-10T08:18:53.003Z,100424.81
2023-05-10T08:21:20.082Z,100425.41
2023-05-10T08:23:47.300Z,100417.19
2023-05-10T08:26:14.429Z,100416.91
2023-05-10T08:28:41.570Z,100417.03
2023-05-10T08:31:08.654Z,100427.56
2023-05-10T08:33:35.785Z,100409.97
2023-05-10T08:36:02.865Z,100425.91
2023-05-10T08:38:30.085Z,100417.53
2023-05-10T08:41:00.298Z,100421.06
2023-05-10T08:43:31.393Z,100409.97
2023-05-10T08:46:01.979Z,100417.84
2023-05-10T08:48:30.546Z,100409.78
2023-05-10T08:50:59.740Z,100416.00
2023-05-10T08:53:28.469Z,100421.03
2023-05-10T08:55:56.794Z,100408.34
2023-05-10T08:58:24.113Z,100424.38
2023-05-10T09:00:54.493Z,100421.91
2023-05-10T09:03:21.872Z,100427.00
2023-05-10T09:05:52.007Z,100414.72
2023-05-10T09:08:19.568Z,100412.78
2023-05-10T09:10:48.761Z,100410.00
2023-05-10T09:13:19.173Z,100393.13
2023-05-10T09:15:46.721Z,100398.25
2023-05-10T09:18:14.150Z,100401.56
2023-05-10T09:20:41.790Z,100398.75
2023-05-10T09:23:09.047Z,100408.28
2023-05-10T09:25:36.345Z,100404.91
2023-05-10T09:28:03.502Z,100406.88
2023-05-10T09:30:32.330Z,100389.72
2023-05-10T09:33:00.807Z,100400.25
2023-05-10T09:35:33.100Z,100402.03
2023-05-10T09:38:06.757Z,100401.91
2023-05-10T09:40:33.960Z,100401.09
2023-05-10T09:43:03.821Z,100402.75
2023-05-10T09:45:34.596Z,100395.03
2023-05-10T09:48:03.694Z,100404.44
2023-05-10T09:50:31.559Z,100387.94
2023-05-10T09:53:01.010Z,100388.84
2023-05-10T09:55:45.400Z,100392.03
2023-05-10T09:58:13.739Z,100388.28
2023-05-10T10:00:45.816Z,100383.59
2023-05-10T10:03:21.308Z,100385.63
2023-05-10T10:05:49.677Z,100373.13
2023-05-10T10:08:17.955Z,100371.59
2023-05-10T10:10:47.827Z,100366.88
2023-05-10T10:13:16.229Z,100370.81
2023-05-10T10:15:44.412Z,100379.44
2023-05-10T10:18:15.632Z,100364.94
2023-05-10T10:20:43.090Z,100360.66
2023-05-10T10:23:10.893Z,100362.44
2023-05-10T10:25:39.286Z,100365.00
2023-05-10T10:28:11.637Z,100366.72
2023-05-10T10:30:47.543Z,100358.63
2023-05-10T10:33:28.546Z,100363.75
2023-05-10T10:35:57.145Z,100350.66
2023-05-10T10:38:24.541Z,100355.00
2023-05-10T10:41:10.977Z,100335.38
2023-05-10T10:43:38.082Z,100343.72
2023-05-10T10:46:14.118Z,100345.81
2023-05-10T10:48:53.573Z,100348.53
2023-05-10T10:51:20.665Z,100330.47
2023-05-10T10:53:49.215Z,100315.47
2023-05-10T10:56:16.830Z,100324.78
2023-05-10T10:58:52.532Z,100331.47
2023-05-10T11:01:20.292Z,100327.72
2023-05-10T11:04:20.241Z,100316.25
2023-05-10T11:06:47.514Z,100314.78
2023-05-10T11:09:14.719Z,100326.44
2023-05-10T11:11:53.585Z,100318.53
2023-05-10T11:14:23.941Z,100307.66
2023-05-10T11:16:51.273Z,100311.84
2023-05-10T11:19:19.567Z,100319.34
2023-05-10T11:21:48.122Z,100321.72
2023-05-10T11:24:20.381Z,100309.13
2023-05-10T11:26:47.749Z,100313.94
2023-05-10T11:29:15.180Z,100308.03
2023-05-10T11:31:48.741Z,100303.59
2023-05-10T11:34:25.977Z,100308.47
2023-05-10T11:36:57.853Z,100309.56
2023-05-10T11:39:31.512Z,100313.31
2023-05-10T11:41:59.631Z,100309.94
2023-05-10T11:44:35.725Z,100318.44
2023-05-10T11:47:03.344Z,100315.38
2023-05-10T11:49:30.701Z,100309.31
2023-05-10T11:52:08.407Z,100314.25
2023-05-10T11:54:36.295Z,100307.34
2023-05-10T11:57:03.937Z,100309.50
2023-05-10T11:59:31.141Z,100302.84
2023-05-10T12:01:58.358Z,100297.81
2023-05-10T12:04:26.170Z,100306.06
2023-05-10T12:06:53.348Z,100305.44
2023-05-10T12:09:31.489Z,100296.91
2023-05-10T12:12:07.214Z,100298.81
2023-05-10T12:14:36.677Z,100304.03
2023-05-10T12:17:03.754Z,100308.03
2023-05-10T12:19:38.919Z,100294.00
2023-05-10T12:22:07.226Z,100296.09
2023-05-10T12:24:39.379Z,100305.53
2023-05-10T12:29:49.557Z,100300.78
2023-05-10T12:32:16.711Z,100294.91
2023-05-10T12:34:43.721Z,100294.97
2023-05-10T12:37:10.851Z,100288.97
2023-05-10T12:39:42.689Z,100296.22
2023-05-10T12:42:09.714Z,100293.72
2023-05-10T12:44:36.863Z,100289.34
2023-05-10T12:47:03.867Z,100285.00
2023-05-10T12:49:31.149Z,100283.78
2023-05-10T12:51:58.161Z,100278.88
2023-05-10T12:54:25.222Z,100286.97
2023-05-10T12:56:52.420Z,100281.63
2023-05-10T12:59:19.439Z,100292.41
2023-05-10T13:01:46.695Z,100276.81
2023-05-10T13:04:13.772Z,100285.66
2023-05-10T13:06:40.827Z,100272.13
2023-05-10T13:09:08.091Z,100275.97
2023-05-10T13:11:35.357Z,100273.88
2023-05-10T13:14:04.321Z,100280.00
2023-05-10T13:16:32.440Z,100273.88
2023-05-10T13:18:59.715Z,100273.88
2023-05-10T13:21:26.971Z,100267.34
2023-05-10T13:23:54.674Z,100277.41
2023-05-10T13:26:22.435Z,100279.47
2023-05-10T13:28:50.039Z,100278.88
2023-05-10T13:31:17.098Z,100272.66
2023-05-10T13:33:44.166Z,100268.63
2023-05-10T13:36:11.336Z,100261.50
2023-05-10T13:38:38.726Z,100269.22
2023-05-10T13:41:05.901Z,100270.41
2023-05-10T13:43:32.931Z,100269.56
2023-05-10T13:46:00.028Z,100273.47
2023-05-10T13:48:27.858Z,100258.75
2023-05-10T13:50:54.912Z,100258.75
2023-05-10T13:53:22.318Z,100258.75
2023-05-10T13:55:49.690Z,100247.44
2023-05-10T13:58:16.713Z,100243.00
2023-05-10T14:00:44.411Z,100240.56
2023-05-10T14:03:12.570Z,100246.31
2023-05-10T14:05:39.753Z,100244.59
2023-05-10T14:08:06.827Z,100245.47
2023-05-10T14:10:33.828Z,100239.31
2023-05-10T14:13:00.926Z,100237.16
2023-05-10T14:15:27.981Z,100236.44
2023-05-10T14:17:55.197Z,100209.25
2023-05-10T14:20:22.152Z,100225.47
2023-05-10T14:22:49.191Z,100237.59
2023-05-10T14:25:16.500Z,100237.06
2023-05-10T14:27:43.685Z,100236.78
2023-05-10T14:30:11.342Z,100226.38
2023-05-10T14:32:38.536Z,100225.72
2023-05-10T14:35:07.288Z,100227.63
2023-05-10T14:37:34.637Z,100223.84
2023-05-10T14:40:01.961Z,100226.97
2023-05-10T14:42:29.635Z,100221.88
2023-05-10T14:44:56.716Z,100211.38
2023-05-10T14:47:23.881Z,100224.53
2023-05-10T14:49:51.322Z,100224.78
2023-05-10T14:52:18.603Z,100213.75
2023-05-10T14:54:45.704Z,100216.72
2023-05-10T14:57:12.720Z,100221.00
2023-05-10T14:59:39.704Z,100214.78
2023-05-10T15:02:09.416Z,100217.50
2023-05-10T15:04:37.069Z,100220.41
2023-05-10T15:07:04.440Z,100222.31
2023-05-10T15:09:31.679Z,100210.50
2023-05-10T15:11:58.696Z,100207.94
2023-05-10T15:14:26.082Z,100207.28
2023-05-10T15:16:53.204Z,100211.69
2023-05-10T15:19:21.145Z,100210.88
2023-05-10T15:21:48.500Z,100208.63
2023-05-10T15:24:15.721Z,100212.13
2023-05-10T15:26:42.702Z,100204.13
2023-05-10T15:29:09.805Z,100198.66
2023-05-10T15:31:37.417Z,100200.56
2023-05-10T15:34:04.366Z,100208.56
2023-05-10T15:36:32.897Z,100213.00
2023-05-10T15:38:59.961Z,100219.38
2023-05-10T15:41:26.910Z,100213.28
2023-05-10T15:43:54.903Z,100204.69
2023-05-10T15:46:21.939Z,100198.53
2023-05-10T15:48:48.969Z,100201.84
2023-05-10T15:51:16.373Z,100201.94
2023-05-10T15:53:56.458Z,100204.63
2023-05-10T15:56:30.907Z,100191.88
2023-05-10T15:58:57.975Z,100202.38
2023-05-10T16:01:25.442Z,100204.69
2023-05-10T16:03:52.578Z,100205.78
2023-05-10T16:06:19.601Z,100200.06
2023-05-10T16:08:46.590Z,100202.97
2023-05-10T16:11:13.692Z,100207.72
2023-05-10T16:13:40.711Z,100212.34
2023-05-10T16:16:09.124Z,100208.38
2023-05-10T16:18:36.555Z,100207.75
2023-05-10T16:21:04.076Z,100199.28
2023-05-10T16:23:31.151Z,100216.19
2023-05-10T16:25:58.606Z,100211.03
2023-05-10T16:28:25.778Z,100209.50
2023-05-10T16:30:53.043Z,100201.84
2023-05-10T16:33:20.325Z,100215.13
2023-05-10T16:35:47.431Z,100214.25
2023-05-10T16:38:15.221Z,100216.03
2023-05-10T16:40:42.189Z,100219.69
2023-05-10T16:43:09.530Z,100214.56
2023-05-10T16:45:36.646Z,100216.59
2023-05-10T16:48:04.130Z,100215.69
2023-05-10T16:50:31.745Z,100222.50
2023-05-10T16:52:59.068Z,100222.63
2023-05-10T16:55:26.590Z,100220.38
2023-05-10T16:57:58.955Z,100223.34
2023-05-10T17:00:26.941Z,100219.22
2023-05-10T17:02:55.046Z,100225.44
2023-05-10T17:05:23.365Z,100225.63
2023-05-10T17:07:50.871Z,100233.69
2023-05-10T17:10:19.872Z,100234.69
2023-05-10T17:12:47.913Z,100226.09
2023-05-10T17:15:16.783Z,100239.41
2023-05-10T17:17:44.102Z,100240.47
2023-05-10T17:20:11.386Z,100236.97
2023-05-10T17:22:38.480Z,100240.59
2023-05-10T17:25:05.906Z,100245.16
2023-05-10T17:27:32.954Z,100253.28
2023-05-10T17:30:00.030Z,100249.78
2023-05-10T17:32:27.313Z,100250.16
2023-05-10T17:34:54.369Z,100251.44
2023-05-10T17:37:21.626Z,100250.91
2023-05-10T17:39:48.637Z,100253.78
2023-05-10T17:42:17.830Z,100247.84
2023-05-10T17:44:44.867Z,100253.16
2023-05-10T17:47:11.913Z,100253.34
2023-05-10T17:49:40.098Z,100265.91
2023-05-10T17:52:07.620Z,100264.38
2023-05-10T17:54:35.086Z,100260.19
2023-05-10T17:57:02.429Z,100267.47
2023-05-10T17:59:29.610Z,100268.50
2023-05-10T18:01:56.732Z,100267.84
2023-05-10T18:04:24.114Z,100272.41
2023-05-10T18:06:51.212Z,100273.47
2023-05-10T18:09:18.500Z,100278.16
2023-05-10T18:11:45.770Z,100271.38
2023-05-10T18:14:12.773Z,100277.69
2023-05-10T18:16:40.252Z,100281.41
2023-05-10T18:19:07.447Z,100283.41
2023-05-10T18:21:34.897Z,100288.09
2023-05-10T18:24:02.398Z,100290.22
2023-05-10T18:26:30.259Z,100286.97
2023-05-10T18:28:59.201Z,100290.75
2023-05-10T18:31:27.740Z,100295.31
2023-05-10T18:33:54.875Z,100295.47
2023-05-10T18:36:23.585Z,100304.44
2023-05-10T18:38:50.930Z,100303.72
2023-05-10T18:41:18.930Z,100308.31
2023-05-10T18:43:46.288Z,100312.00
2023-05-10T18:46:13.378Z,100317.34
2023-05-10T18:48:40.840Z,100321.03
2023-05-10T18:51:07.874Z,100325.59
2023-05-10T18:53:35.279Z,100329.25
2023-05-10T18:56:02.268Z,100330.22
2023-05-10T18:58:29.737Z,100333.00
2023-05-10T19:00:57.186Z,100334.97
2023-05-10T19:03:24.284Z,100332.44
2023-05-10T19:05:51.578Z,100341.25
2023-05-10T19:08:19.699Z,100336.09
2023-05-10T19:10:46.976Z,100340.59
2023-05-10T19:13:15.337Z,100340.63
2023-05-10T19:15:42.657Z,100339.03
2023-05-10T19:18:10.301Z,100339.09
2023-05-10T19:20:39.829Z,100336.56
2023-05-10T19:23:10.270Z,100338.41
2023-05-10T19:25:40.752Z,100342.00
2023-05-10T19:28:10.225Z,100341.19
2023-05-10T19:30:38.053Z,100343.88
2023-05-10T19:33:05.971Z,100349.19
2023-05-10T19:35:32.999Z,100346.66
2023-05-10T19:38:00.045Z,100347.69
2023-05-10T19:40:27.080Z,100347.78
2023-05-10T19:42:57.078Z,100359.16
2023-05-10T19:45:24.119Z,100351.41
2023-05-10T19:47:51.353Z,100355.88
2023-05-10T19:50:19.576Z,100358.56
2023-05-10T19:52:47.081Z,100363.91
2023-05-10T19:55:17.667Z,100364.00
2023-05-10T19:57:46.331Z,100370.25
2023-05-10T20:00:14.203Z,100368.56
2023-05-10T20:02:41.207Z,100368.63
2023-05-10T20:05:08.589Z,100379.13
2023-05-10T20:07:37.062Z,100375.72
2023-05-10T20:10:04.633Z,100374.94
2023-05-10T20:12:31.787Z,100368.97
2023-05-10T20:14:58.875Z,100369.88
2023-05-10T20:17:26.258Z,100377.78
2023-05-10T20:19:53.307Z,100378.72
2023-05-10T20:22:20.519Z,100382.25
2023-05-10T20:24:48.382Z,100375.28
2023-05-10T20:27:15.387Z,100377.97
2023-05-10T20:29:42.531Z,100382.34
2023-05-10T20:32:09.552Z,100375.34
2023-05-10T20:34:36.734Z,100383.19
2023-05-10T20:37:04.025Z,100383.19
2023-05-10T20:39:31.222Z,100380.56
2023-05-10T20:41:58.264Z,100386.66
2023-05-10T20:44:25.571Z,100384.06
2023-05-10T20:46:52.711Z,100383.19
2023-05-10T20:49:19.983Z,100385.84
2023-05-10T20:51:47.217Z,100389.31
2023-05-10T20:54:14.529Z,100388.44
2023-05-10T20:56:41.544Z,100395.41
2023-05-10T20:59:08.612Z,100393.69
2023-05-10T21:01:35.643Z,100396.31
2023-05-10T21:04:03.518Z,100398.97
2023-05-10T21:06:31.663Z,100399.84
2023-05-10T21:08:58.723Z,100396.41
2023-05-10T21:11:25.973Z,100405.09
2023-05-10T21:13:53.008Z,100401.66
2023-05-10T21:16:20.264Z,100407.75
2023-05-10T21:18:47.532Z,100406.94
2023-05-10T21:21:14.657Z,100402.66
2023-05-10T21:23:41.748Z,100419.16
2023-05-10T21:26:08.765Z,100412.19
2023-05-10T21:28:36.537Z,100420.06
2023-05-10T21:31:04.925Z,100419.22
2023-05-10T21:33:32.257Z,100422.72
2023-05-10T21:35:59.337Z,100423.59
2023-05-10T21:38:28.257Z,100423.59
2023-05-10T21:40:55.275Z,100419.25
2023-05-10T21:43:22.357Z,100428.84
2023-05-10T21:45:49.527Z,100424.47
2023-05-10T21:48:16.547Z,100424.53
2023-05-10T21:50:44.074Z,100430.63
2023-05-10T21:53:11.131Z,100429.78
2023-05-10T21:55:38.288Z,100429.84
2023-05-10T21:58:05.665Z,100430.69
2023-05-10T22:00:34.163Z,100428.13
2023-05-10T22:03:01.533Z,100430.78
2023-05-10T22:05:29.307Z,100434.25
2023-05-10T22:07:56.535Z,100436.88
2023-05-10T22:10:23.589Z,100438.59
2023-05-10T22:12:50.899Z,100441.22
2023-05-10T22:15:18.070Z,100445.56
2023-05-10T22:17:45.209Z,100434.28
2023-05-10T22:20:12.753Z,100430.84
2023-05-10T22:22:39.823Z,100439.53
2023-05-10T22:25:07.834Z,100445.59
2023-05-10T22:27:35.245Z,100448.22
2023-05-10T22:30:02.992Z,100443.84
2023-05-10T22:32:31.870Z,100444.75
2023-05-10T22:34:58.983Z,100447.38
2023-05-10T22:37:26.290Z,100451.72
2023-05-10T22:39:53.837Z,100456.03
2023-05-10T22:42:20.936Z,100455.19
2023-05-10T22:44:48.530Z,100462.16
2023-05-10T22:47:16.553Z,100452.59
2023-05-10T22:49:43.544Z,100456.94
2023-05-10T22:52:11.219Z,100461.28
2023-05-10T22:54:38.356Z,100456.06
2023-05-10T22:57:06.265Z,100457.81
2023-05-10T22:59:33.834Z,100453.47
2023-05-10T23:02:00.879Z,100461.28
2023-05-10T23:04:28.027Z,100457.81
2023-05-10T23:06:55.084Z,100462.16
2023-05-10T23:09:22.185Z,100457.81
2023-05-10T23:11:49.338Z,100459.53
2023-05-10T23:14:16.453Z,100458.66
2023-05-10T23:16:43.484Z,100468.22
2023-05-10T23:19:10.589Z,100470.84
2023-05-10T23:21:37.692Z,100468.22
2023-05-10T23:24:05.171Z,100466.50
2023-05-10T23:26:32.222Z,100473.41
2023-05-10T23:29:00.671Z,100463.03
2023-05-10T23:31:28.067Z,100472.56
2023-05-10T23:33:55.225Z,100463.00
2023-05-10T23:36:22.261Z,100466.47
2023-05-10T23:38:49.367Z,100466.47
2023-05-10T23:41:16.424Z,100471.63
2023-05-10T23:43:43.683Z,100471.66
2023-05-10T23:46:10.756Z,100472.50
2023-05-10T23:48:37.876Z,100468.16
2023-05-10T23:51:05.117Z,100465.56
2023-05-10T23:53:32.239Z,100476.78
2023-05-10T23:55:59.244Z,100475.03
2023-05-10T23:58:26.349Z,100471.53
